Česky Dansk Deutsch English Español Suomi Français Magyar Italiano Nederlands norsk Polski Português svenska Türkçe

 

Het Weer

St. Peterburg (Rusland)

05:00, 14 augustus 2016 (GMT)

NWNNE
WE
SWSSE
Home            
St. Peterburg Lappeenranta Utti Savonlinna Mikkeli Tartu/Ulenurme Varkaus Helsinki-Malmi Helsinki-Vantaa Joensuu Tallinn Halli Kuopio Jyvaskyla Parnu Tampere / Pirkkala Velikie Luki Viitasaari Ahtari Kardla Turku Tver Kuressaare

Om een weerknop op uw website of weblog te plaatsen, copieer onderstaande code en plak die in uw pagina. In het eerste vakje staat HTML-code, in het tweede vakje UBB-code.


Add to Google

Details

Wind speed:3 bf, 7.8 kn, 4 m/s, 8.9 miles/h, 14.4 km/h
Wind direction:SE, 140° - SSW, 200°
Visibility:Greater than 10000 m, 10 km, 32800 ft, 6.2 miles
Clouds:Geschlossene Wolkendecke at 700 ft, 213 m
Temperature:15°C, 59°F
Dew-point:14°C, 57°F
Atmospheric pressure:1010 hPa, 757.6 mmHg, 29.83 inHg, 0.997 atm
Relative humidity:93.7 %
METAR:ULLI 140500Z 17004MPS 140V200 9999 OVC007 15/14 Q1010 R88/290050 NOSIG

Snelkoppelingen

Actuele weersinformatie van de hele wereld. Voeg locaties toe met het plus (+) symbool. Deze snelkoppelingen kunnen worden toegevoegd aan Google.

Lid van de Technetium groep

website free tracking
StatCounter NetStat W3C Validator

27-10-2020 01:02:35
astro.technetium.be money.technetium.be phote.technetium.be tafeltennistafel.technetium.be www.ligfiets.net